Time;durP1;ratioP1;P1;durP2;ratioP2;P2;SDS_P1;SDS_P2;PMS_P1;PMS_P2;Temp;Humidity;BMP_temperature;BMP_pressure;BME280_temperature;BME280_humidity;BME280_pressure;Samples;Min_cycle;Max_cycle;Signal;HPM_P1;HPM_P2
2024/03/30 00:00:50;;;;;;;0.20;0.10;;;;;;;;;;5059414;28;19956;-79
2024/03/30 00:03:16;;;;;;;0.20;0.10;;;;;;;;;;5061690;28;20054;-79
2024/03/30 00:05:42;;;;;;;0.20;0.00;;;;;;;;;;5052627;28;20049;-80
2024/03/30 00:08:08;;;;;;;0.20;0.10;;;;;;;;;;5062479;28;20061;-80
2024/03/30 00:10:38;;;;;;;0.20;0.10;;;;;;;;;;5063583;28;20048;-80
2024/03/30 00:13:05;;;;;;;0.20;0.10;;;;;;;;;;5060227;28;20053;-79
2024/03/30 00:15:32;;;;;;;0.20;0.15;;;;;;;;;;5047216;28;20059;-79
2024/03/30 00:18:01;;;;;;;0.20;0.10;;;;;;;;;;5053644;28;20099;-78
2024/03/30 00:20:27;;;;;;;0.20;0.10;;;;;;;;;;5054497;28;20025;-81
2024/03/30 00:22:53;;;;;;;0.20;0.10;;;;;;;;;;5057290;28;20049;-80
2024/03/30 00:25:20;;;;;;;0.20;0.10;;;;;;;;;;5057502;28;20028;-79
2024/03/30 00:27:46;;;;;;;0.50;0.32;;;;;;;;;;5061551;28;20037;-79
2024/03/30 00:30:12;;;;;;;0.20;0.13;;;;;;;;;;5059559;28;20060;-78
2024/03/30 00:32:38;;;;;;;0.20;0.10;;;;;;;;;;5064380;28;20036;-78
2024/03/30 00:35:05;;;;;;;0.20;0.10;;;;;;;;;;5056130;28;20033;-79
2024/03/30 00:37:31;;;;;;;0.20;0.10;;;;;;;;;;5059049;28;20060;-78
2024/03/30 00:39:57;;;;;;;0.60;0.40;;;;;;;;;;5062156;28;20034;-78
2024/03/30 00:42:23;;;;;;;0.20;0.10;;;;;;;;;;5060920;28;20041;-78
2024/03/30 00:44:49;;;;;;;0.20;0.00;;;;;;;;;;5061835;28;21155;-78
2024/03/30 00:47:15;;;;;;;0.20;0.00;;;;;;;;;;5068008;28;20052;-78
2024/03/30 00:49:41;;;;;;;0.20;0.10;;;;;;;;;;5056139;28;20033;-79
2024/03/30 00:52:07;;;;;;;0.20;0.10;;;;;;;;;;5051036;28;20646;-78
2024/03/30 00:54:33;;;;;;;0.20;0.00;;;;;;;;;;5059977;28;20039;-79
2024/03/30 00:56:59;;;;;;;0.28;0.25;;;;;;;;;;5046651;28;20033;-79
2024/03/30 00:59:25;;;;;;;0.20;0.10;;;;;;;;;;5044825;28;20041;-79
2024/03/30 01:01:51;;;;;;;1.58;1.38;;;;;;;;;;5062737;28;20037;-78
2024/03/30 01:04:17;;;;;;;0.20;0.10;;;;;;;;;;5058268;28;20033;-79
2024/03/30 01:06:43;;;;;;;0.20;0.10;;;;;;;;;;5045206;28;20525;-78
2024/03/30 01:09:10;;;;;;;0.20;0.17;;;;;;;;;;5043829;28;20048;-78
2024/03/30 01:11:39;;;;;;;0.20;0.00;;;;;;;;;;5060410;28;20060;-78
2024/03/30 01:14:05;;;;;;;0.28;0.13;;;;;;;;;;5060449;28;20049;-78
2024/03/30 01:16:32;;;;;;;0.20;0.10;;;;;;;;;;5054155;28;20041;-78
2024/03/30 01:18:58;;;;;;;0.20;0.10;;;;;;;;;;5062232;28;20040;-78
2024/03/30 01:21:24;;;;;;;0.20;0.00;;;;;;;;;;5058692;28;20109;-78
2024/03/30 01:23:51;;;;;;;0.30;0.20;;;;;;;;;;5060881;28;20345;-78
2024/03/30 01:26:19;;;;;;;0.20;0.10;;;;;;;;;;5056909;28;20033;-78
2024/03/30 01:28:46;;;;;;;0.20;0.10;;;;;;;;;;5061234;28;20040;-78
2024/03/30 01:31:13;;;;;;;0.40;0.20;;;;;;;;;;5059333;28;20045;-78
2024/03/30 01:33:42;;;;;;;0.20;0.00;;;;;;;;;;5057715;28;20103;-78
2024/03/30 01:36:08;;;;;;;0.20;0.10;;;;;;;;;;5057016;28;20032;-78
2024/03/30 01:38:34;;;;;;;0.20;0.00;;;;;;;;;;5056392;28;20064;-79
2024/03/30 01:41:00;;;;;;;0.20;0.15;;;;;;;;;;5061755;28;20071;-78
2024/03/30 01:43:26;;;;;;;0.20;0.00;;;;;;;;;;5046627;28;20060;-79
2024/03/30 01:45:54;;;;;;;0.20;0.03;;;;;;;;;;5052448;28;20044;-79
2024/03/30 01:48:21;;;;;;;0.20;0.10;;;;;;;;;;5059620;28;20087;-79
2024/03/30 01:50:48;;;;;;;0.20;0.00;;;;;;;;;;5061705;28;20034;-79
2024/03/30 01:53:16;;;;;;;0.20;0.10;;;;;;;;;;5070489;28;20076;-80
2024/03/30 01:55:42;;;;;;;0.20;0.10;;;;;;;;;;5065377;28;20033;-79
2024/03/30 01:58:10;;;;;;;0.20;0.08;;;;;;;;;;5059867;28;20044;-79
2024/03/30 02:00:36;;;;;;;0.20;0.10;;;;;;;;;;5062327;28;20055;-79
2024/03/30 02:03:04;;;;;;;0.20;0.08;;;;;;;;;;5060366;28;20064;-80
2024/03/30 02:05:31;;;;;;;0.20;0.03;;;;;;;;;;5065767;28;20043;-79
2024/03/30 02:08:00;;;;;;;0.20;0.10;;;;;;;;;;5067702;28;22089;-79
2024/03/30 02:10:28;;;;;;;0.20;0.10;;;;;;;;;;5065089;28;20192;-79
2024/03/30 02:12:54;;;;;;;0.20;0.10;;;;;;;;;;5048673;28;20029;-80
2024/03/30 02:15:20;;;;;;;0.30;0.10;;;;;;;;;;5059567;28;20068;-79
2024/03/30 02:17:46;;;;;;;0.20;0.10;;;;;;;;;;5064780;28;20044;-81
2024/03/30 02:20:12;;;;;;;0.20;0.00;;;;;;;;;;5061144;28;20026;-81
2024/03/30 02:22:38;;;;;;;0.20;0.00;;;;;;;;;;5065567;28;20052;-80
2024/03/30 02:25:05;;;;;;;0.77;0.30;;;;;;;;;;5052622;28;20060;-79
2024/03/30 02:27:35;;;;;;;0.20;0.08;;;;;;;;;;5047471;28;20038;-80
2024/03/30 02:30:02;;;;;;;0.20;0.10;;;;;;;;;;5053590;28;20030;-80
2024/03/30 02:32:28;;;;;;;0.20;0.20;;;;;;;;;;5062585;28;20041;-79
2024/03/30 02:34:55;;;;;;;0.20;0.10;;;;;;;;;;5062405;28;20044;-80
2024/03/30 02:37:21;;;;;;;0.20;0.10;;;;;;;;;;5063003;28;20056;-80
2024/03/30 02:39:47;;;;;;;0.20;0.10;;;;;;;;;;5063701;28;20030;-79
2024/03/30 02:42:13;;;;;;;0.20;0.10;;;;;;;;;;5062814;28;20041;-79
2024/03/30 02:44:39;;;;;;;0.20;0.10;;;;;;;;;;5064066;28;20037;-79
2024/03/30 02:47:05;;;;;;;0.20;0.10;;;;;;;;;;5063994;28;20048;-79
2024/03/30 02:49:31;;;;;;;0.20;0.00;;;;;;;;;;5061158;28;20043;-80
2024/03/30 02:51:57;;;;;;;0.20;0.10;;;;;;;;;;5064132;28;20080;-79
2024/03/30 02:54:23;;;;;;;0.20;0.10;;;;;;;;;;5060980;28;20033;-80
2024/03/30 02:56:49;;;;;;;0.20;0.10;;;;;;;;;;5064543;28;20044;-79
2024/03/30 02:59:15;;;;;;;0.20;0.05;;;;;;;;;;5066059;28;20059;-80
2024/03/30 03:01:42;;;;;;;0.20;0.10;;;;;;;;;;5061510;28;20021;-79
2024/03/30 03:04:08;;;;;;;0.30;0.30;;;;;;;;;;5061645;28;20045;-79
2024/03/30 03:06:34;;;;;;;0.20;0.10;;;;;;;;;;5062347;28;20086;-79
2024/03/30 03:09:00;;;;;;;0.20;0.10;;;;;;;;;;5065221;28;20045;-79
2024/03/30 03:11:26;;;;;;;0.20;0.10;;;;;;;;;;5065345;28;20037;-79
2024/03/30 03:13:52;;;;;;;0.20;0.15;;;;;;;;;;5045703;28;20033;-78
2024/03/30 03:16:18;;;;;;;0.20;0.10;;;;;;;;;;5062786;28;20023;-78
2024/03/30 03:18:44;;;;;;;0.20;0.10;;;;;;;;;;5064110;28;20054;-79
2024/03/30 03:21:10;;;;;;;0.20;0.10;;;;;;;;;;5052979;28;20030;-80
2024/03/30 03:23:38;;;;;;;0.20;0.10;;;;;;;;;;5060562;28;20037;-79
2024/03/30 03:26:04;;;;;;;0.30;0.20;;;;;;;;;;5058440;28;20089;-79
2024/03/30 03:28:30;;;;;;;0.20;0.10;;;;;;;;;;5060337;28;20033;-79
2024/03/30 03:30:56;;;;;;;0.20;0.00;;;;;;;;;;5058373;28;20040;-79
2024/03/30 03:33:23;;;;;;;0.20;0.10;;;;;;;;;;5045780;28;20075;-79
2024/03/30 03:35:49;;;;;;;0.20;0.10;;;;;;;;;;5055363;28;20050;-79
2024/03/30 03:38:15;;;;;;;0.20;0.10;;;;;;;;;;5046319;28;20405;-79
2024/03/30 03:40:41;;;;;;;0.20;0.10;;;;;;;;;;5057590;28;20060;-79
2024/03/30 03:43:07;;;;;;;0.20;0.10;;;;;;;;;;5064693;28;20061;-79
2024/03/30 03:45:33;;;;;;;0.20;0.10;;;;;;;;;;5060515;28;20021;-79
2024/03/30 03:47:59;;;;;;;0.30;0.25;;;;;;;;;;5063823;28;20037;-79
2024/03/30 03:50:25;;;;;;;0.20;0.10;;;;;;;;;;5057976;28;20020;-79
2024/03/30 03:52:51;;;;;;;0.20;0.10;;;;;;;;;;5076404;28;20033;-78
2024/03/30 03:55:17;;;;;;;0.20;0.00;;;;;;;;;;5063803;28;20076;-79
2024/03/30 03:57:43;;;;;;;0.20;0.20;;;;;;;;;;5061139;28;20037;-80
2024/03/30 04:00:09;;;;;;;0.20;0.10;;;;;;;;;;5060846;28;20029;-80
2024/03/30 04:02:37;;;;;;;0.20;0.10;;;;;;;;;;5049546;28;20045;-80
2024/03/30 04:05:03;;;;;;;0.20;0.00;;;;;;;;;;5060254;28;20263;-79
2024/03/30 04:07:29;;;;;;;0.20;0.10;;;;;;;;;;5060904;28;20048;-80
2024/03/30 04:09:55;;;;;;;0.20;0.00;;;;;;;;;;5060533;28;20153;-80
2024/03/30 04:12:21;;;;;;;0.20;0.00;;;;;;;;;;5070531;28;20045;-80
2024/03/30 04:14:47;;;;;;;0.20;0.05;;;;;;;;;;5065867;28;20029;-79
2024/03/30 04:17:13;;;;;;;0.20;0.10;;;;;;;;;;5059167;28;20040;-80
2024/03/30 04:19:39;;;;;;;0.20;0.10;;;;;;;;;;5059596;28;20037;-80
2024/03/30 04:22:05;;;;;;;0.20;0.10;;;;;;;;;;5059244;28;20380;-80
2024/03/30 04:24:31;;;;;;;0.38;0.25;;;;;;;;;;5067118;28;20104;-79
2024/03/30 04:26:57;;;;;;;0.20;0.10;;;;;;;;;;5058337;28;20041;-79
2024/03/30 04:29:23;;;;;;;0.20;0.10;;;;;;;;;;5041945;28;20052;-78
2024/03/30 04:31:49;;;;;;;0.22;0.20;;;;;;;;;;5061811;28;20068;-79
2024/03/30 04:34:15;;;;;;;0.65;0.30;;;;;;;;;;5047101;28;20045;-79
2024/03/30 04:36:41;;;;;;;0.20;0.10;;;;;;;;;;5067514;28;20262;-79
2024/03/30 04:39:07;;;;;;;0.95;0.30;;;;;;;;;;5064425;28;20028;-79
2024/03/30 04:41:33;;;;;;;0.20;0.00;;;;;;;;;;5068886;28;20056;-79
2024/03/30 04:43:59;;;;;;;0.20;0.10;;;;;;;;;;5065409;28;20065;-79
2024/03/30 04:46:25;;;;;;;0.30;0.30;;;;;;;;;;5068552;28;20037;-79
2024/03/30 04:48:51;;;;;;;0.20;0.20;;;;;;;;;;5065020;28;20051;-79
2024/03/30 04:51:17;;;;;;;0.20;0.10;;;;;;;;;;5067728;28;20048;-79
2024/03/30 04:53:43;;;;;;;0.22;0.10;;;;;;;;;;5063386;28;20091;-79
2024/03/30 04:56:11;;;;;;;0.20;0.10;;;;;;;;;;5065809;28;20029;-79
2024/03/30 04:58:37;;;;;;;0.20;0.10;;;;;;;;;;5068916;28;20096;-79
2024/03/30 05:01:07;;;;;;;0.20;0.10;;;;;;;;;;5065066;28;20033;-80
2024/03/30 05:03:33;;;;;;;0.20;0.20;;;;;;;;;;5052055;28;20037;-79
2024/03/30 05:06:01;;;;;;;0.20;0.08;;;;;;;;;;5060807;28;20112;-79
2024/03/30 05:08:27;;;;;;;0.40;0.32;;;;;;;;;;5058890;28;20059;-80
2024/03/30 05:10:54;;;;;;;0.30;0.22;;;;;;;;;;5064540;28;20033;-79
2024/03/30 05:13:20;;;;;;;0.20;0.10;;;;;;;;;;5060888;28;20045;-79
2024/03/30 05:15:46;;;;;;;0.20;0.10;;;;;;;;;;5062494;28;20045;-79
2024/03/30 05:18:13;;;;;;;0.20;0.10;;;;;;;;;;5061770;28;20065;-79
2024/03/30 05:20:49;;;;;;;0.90;0.50;;;;;;;;;;5063684;28;20037;-79
2024/03/30 05:23:19;;;;;;;0.20;0.10;;;;;;;;;;5066613;28;20334;-79
2024/03/30 05:25:46;;;;;;;0.47;0.20;;;;;;;;;;5068501;28;20041;-79
2024/03/30 05:28:12;;;;;;;0.20;0.10;;;;;;;;;;5061104;28;20037;-79
2024/03/30 05:30:38;;;;;;;0.20;0.00;;;;;;;;;;5065824;28;20053;-79
2024/03/30 05:33:05;;;;;;;0.20;0.08;;;;;;;;;;5062424;28;20128;-79
2024/03/30 05:35:31;;;;;;;0.20;0.10;;;;;;;;;;5062034;28;20036;-79
2024/03/30 05:37:58;;;;;;;0.57;0.45;;;;;;;;;;5058409;28;20029;-79
2024/03/30 05:40:24;;;;;;;0.20;0.15;;;;;;;;;;5075555;28;20043;-79
2024/03/30 05:42:51;;;;;;;0.20;0.10;;;;;;;;;;5065604;28;20021;-78
2024/03/30 05:45:17;;;;;;;0.20;0.10;;;;;;;;;;5062643;28;20045;-78
2024/03/30 05:47:43;;;;;;;0.20;0.10;;;;;;;;;;5047646;28;20053;-79
2024/03/30 05:50:09;;;;;;;0.20;0.08;;;;;;;;;;5065931;28;20059;-79
2024/03/30 05:52:35;;;;;;;0.20;0.10;;;;;;;;;;5063017;28;21290;-79
2024/03/30 05:55:05;;;;;;;0.30;0.30;;;;;;;;;;5064668;28;20108;-79
2024/03/30 05:57:31;;;;;;;0.20;0.10;;;;;;;;;;5064654;28;20071;-79
2024/03/30 05:59:57;;;;;;;0.20;0.10;;;;;;;;;;5065708;28;20113;-79
2024/03/30 06:02:24;;;;;;;0.20;0.10;;;;;;;;;;5066501;28;20045;-79
2024/03/30 06:04:51;;;;;;;0.20;0.13;;;;;;;;;;5065000;28;20043;-79
2024/03/30 06:07:17;;;;;;;0.20;0.10;;;;;;;;;;5063942;28;20060;-79
2024/03/30 06:09:43;;;;;;;0.20;0.10;;;;;;;;;;5063993;28;20055;-79
2024/03/30 06:12:09;;;;;;;0.20;0.10;;;;;;;;;;5063945;28;20048;-79
2024/03/30 06:14:35;;;;;;;0.20;0.00;;;;;;;;;;5063772;28;20071;-79
2024/03/30 06:17:01;;;;;;;0.20;0.00;;;;;;;;;;5061934;28;20334;-79
2024/03/30 06:19:27;;;;;;;0.20;0.10;;;;;;;;;;5061164;28;20384;-79
2024/03/30 06:21:53;;;;;;;0.28;0.13;;;;;;;;;;5065429;28;20036;-79
2024/03/30 06:24:19;;;;;;;0.20;0.10;;;;;;;;;;5064225;28;20049;-79
2024/03/30 06:26:45;;;;;;;1.00;0.32;;;;;;;;;;5063424;28;20053;-79
2024/03/30 06:29:11;;;;;;;0.20;0.10;;;;;;;;;;5045590;28;20057;-78
2024/03/30 06:31:37;;;;;;;0.20;0.13;;;;;;;;;;5047936;28;20568;-78
2024/03/30 06:34:06;;;;;;;0.20;0.10;;;;;;;;;;5077963;28;20058;-78
2024/03/30 06:36:33;;;;;;;0.30;0.15;;;;;;;;;;5060523;28;20049;-79
2024/03/30 06:39:00;;;;;;;0.20;0.00;;;;;;;;;;5063109;28;20028;-79
2024/03/30 06:44:11;;;;;;;0.22;0.05;;;;;;;;;;5060760;28;20033;-79
2024/03/30 06:46:37;;;;;;;0.20;0.05;;;;;;;;;;5061717;28;20044;-79
2024/03/30 06:49:03;;;;;;;0.20;0.10;;;;;;;;;;5062724;28;20115;-78
2024/03/30 06:51:29;;;;;;;0.30;0.28;;;;;;;;;;5063025;28;20049;-79
2024/03/30 06:53:56;;;;;;;0.20;0.17;;;;;;;;;;5069231;28;20037;-78
2024/03/30 06:56:22;;;;;;;0.43;0.30;;;;;;;;;;5063555;28;20036;-79
2024/03/30 06:58:48;;;;;;;0.20;0.10;;;;;;;;;;5063506;28;20057;-78
2024/03/30 07:01:14;;;;;;;0.20;0.17;;;;;;;;;;5060495;28;20040;-78
2024/03/30 07:03:40;;;;;;;0.20;0.10;;;;;;;;;;5041851;28;20055;-78
2024/03/30 07:06:07;;;;;;;0.20;0.05;;;;;;;;;;5044186;28;20091;-78
2024/03/30 07:08:33;;;;;;;0.20;0.00;;;;;;;;;;5042001;28;20041;-79
2024/03/30 07:10:59;;;;;;;0.20;0.10;;;;;;;;;;5047029;28;20079;-79
2024/03/30 07:13:25;;;;;;;0.20;0.13;;;;;;;;;;5042770;28;20074;-79
2024/03/30 07:15:51;;;;;;;0.20;0.10;;;;;;;;;;5041700;28;20116;-79
2024/03/30 07:18:18;;;;;;;0.20;0.10;;;;;;;;;;5047388;28;20072;-79
2024/03/30 07:20:44;;;;;;;0.20;0.13;;;;;;;;;;5042546;28;20520;-78
2024/03/30 07:23:10;;;;;;;0.20;0.20;;;;;;;;;;5042516;28;20049;-78
2024/03/30 07:25:37;;;;;;;0.20;0.13;;;;;;;;;;5044538;28;20044;-79
2024/03/30 07:28:04;;;;;;;0.20;0.10;;;;;;;;;;5046212;28;20033;-79
2024/03/30 07:30:30;;;;;;;0.20;0.10;;;;;;;;;;5033612;28;20113;-79
2024/03/30 07:32:56;;;;;;;0.20;0.10;;;;;;;;;;5048897;28;20049;-78
2024/03/30 07:35:22;;;;;;;0.20;0.05;;;;;;;;;;5046053;28;20037;-78
2024/03/30 07:37:48;;;;;;;0.20;0.10;;;;;;;;;;5050077;28;20037;-80
2024/03/30 07:40:14;;;;;;;0.20;0.10;;;;;;;;;;5067637;28;20071;-78
2024/03/30 07:42:40;;;;;;;0.45;0.43;;;;;;;;;;5049706;28;20033;-80
2024/03/30 07:45:06;;;;;;;0.20;0.10;;;;;;;;;;5050841;28;20052;-79
2024/03/30 07:47:33;;;;;;;0.20;0.10;;;;;;;;;;5051592;28;20116;-79
2024/03/30 07:49:59;;;;;;;0.20;0.03;;;;;;;;;;5039904;28;20059;-78
2024/03/30 07:52:24;;;;;;;0.20;0.10;;;;;;;;;;5067374;28;20124;-78
2024/03/30 07:54:50;;;;;;;0.20;0.13;;;;;;;;;;5054482;28;20100;-78
2024/03/30 07:57:17;;;;;;;0.20;0.10;;;;;;;;;;5052202;28;20039;-78
2024/03/30 07:59:43;;;;;;;0.20;0.08;;;;;;;;;;5058458;28;20313;-79
2024/03/30 08:02:09;;;;;;;0.20;0.10;;;;;;;;;;5048229;28;20138;-79
2024/03/30 08:04:35;;;;;;;0.20;0.10;;;;;;;;;;5055158;28;20049;-79
2024/03/30 08:07:02;;;;;;;0.20;0.10;;;;;;;;;;5054461;28;20031;-78
2024/03/30 08:09:28;;;;;;;0.73;0.65;;;;;;;;;;5049531;28;20064;-78
2024/03/30 08:11:54;;;;;;;0.20;0.10;;;;;;;;;;5060354;28;20014;-78
2024/03/30 08:14:21;;;;;;;0.20;0.20;;;;;;;;;;5063534;28;20048;-78
2024/03/30 08:16:47;;;;;;;0.20;0.10;;;;;;;;;;5065226;28;20322;-78
2024/03/30 08:19:13;;;;;;;0.20;0.10;;;;;;;;;;5067052;28;20036;-78
2024/03/30 08:21:39;;;;;;;0.20;0.10;;;;;;;;;;5066107;28;20052;-79
2024/03/30 08:24:05;;;;;;;0.20;0.00;;;;;;;;;;5070529;28;20037;-78
2024/03/30 08:26:31;;;;;;;3.58;0.22;;;;;;;;;;5061560;28;20045;-78
2024/03/30 08:28:57;;;;;;;0.20;0.10;;;;;;;;;;5072654;28;20043;-80
2024/03/30 08:31:24;;;;;;;0.20;0.10;;;;;;;;;;5064686;28;20041;-79
2024/03/30 08:33:52;;;;;;;0.20;0.03;;;;;;;;;;5061853;28;20091;-79
2024/03/30 08:36:18;;;;;;;0.20;0.10;;;;;;;;;;5064311;28;20041;-79
2024/03/30 08:38:44;;;;;;;0.20;0.00;;;;;;;;;;5064611;28;20055;-78
2024/03/30 08:41:10;;;;;;;0.20;0.10;;;;;;;;;;5066949;28;20037;-79
2024/03/30 08:43:37;;;;;;;0.50;0.30;;;;;;;;;;5051072;28;20037;-79
2024/03/30 08:46:04;;;;;;;0.20;0.10;;;;;;;;;;5061631;28;20048;-78
2024/03/30 08:48:34;;;;;;;0.20;0.10;;;;;;;;;;5050756;28;20051;-79
2024/03/30 08:51:00;;;;;;;0.30;0.22;;;;;;;;;;5061101;28;20049;-78
2024/03/30 08:53:26;;;;;;;0.20;0.00;;;;;;;;;;5060291;28;20064;-80
2024/03/30 08:55:59;;;;;;;0.20;0.10;;;;;;;;;;5065891;28;20061;-78
2024/03/30 08:58:25;;;;;;;0.20;0.15;;;;;;;;;;5062070;28;20044;-80
2024/03/30 09:00:51;;;;;;;0.20;0.10;;;;;;;;;;5060354;28;20040;-79
2024/03/30 09:03:17;;;;;;;0.20;0.10;;;;;;;;;;5061159;28;20052;-78
2024/03/30 09:05:46;;;;;;;0.20;0.17;;;;;;;;;;5065411;28;20064;-78
2024/03/30 09:08:16;;;;;;;0.20;0.13;;;;;;;;;;5065481;28;20037;-79
2024/03/30 09:10:45;;;;;;;0.20;0.10;;;;;;;;;;5063392;28;20064;-79
2024/03/30 09:13:11;;;;;;;0.30;0.25;;;;;;;;;;5067895;28;20028;-81
2024/03/30 09:15:37;;;;;;;0.30;0.20;;;;;;;;;;5065111;28;20033;-82
2024/03/30 09:18:03;;;;;;;0.20;0.10;;;;;;;;;;5058038;28;20046;-82
2024/03/30 09:20:29;;;;;;;0.20;0.00;;;;;;;;;;5061065;28;20039;-82
2024/03/30 09:22:55;;;;;;;0.40;0.30;;;;;;;;;;5068353;28;20037;-80
2024/03/30 09:25:21;;;;;;;0.20;0.13;;;;;;;;;;5071818;28;20053;-84
2024/03/30 09:27:48;;;;;;;0.30;0.13;;;;;;;;;;5055409;28;20084;-81
2024/03/30 09:30:14;;;;;;;0.20;0.08;;;;;;;;;;5044667;28;20037;-79
2024/03/30 09:32:40;;;;;;;0.20;0.00;;;;;;;;;;5063445;28;20105;-80
2024/03/30 09:35:08;;;;;;;0.20;0.10;;;;;;;;;;5060479;28;20132;-80
2024/03/30 09:37:34;;;;;;;0.20;0.00;;;;;;;;;;5060688;28;20113;-80
2024/03/30 09:40:00;;;;;;;0.20;0.10;;;;;;;;;;5067297;28;20044;-84
2024/03/30 09:42:36;;;;;;;0.20;0.00;;;;;;;;;;5055008;28;20080;-79
2024/03/30 09:45:02;;;;;;;0.20;0.00;;;;;;;;;;5064180;28;20072;-80
2024/03/30 09:47:30;;;;;;;0.20;0.10;;;;;;;;;;5055436;28;20377;-79
2024/03/30 09:49:58;;;;;;;0.20;0.10;;;;;;;;;;5041724;28;20052;-81
2024/03/30 09:52:25;;;;;;;0.20;0.10;;;;;;;;;;5050090;28;20072;-79
2024/03/30 09:54:51;;;;;;;0.20;0.10;;;;;;;;;;5046882;28;20045;-80
2024/03/30 09:57:18;;;;;;;0.20;0.00;;;;;;;;;;5053627;28;20049;-78
2024/03/30 09:59:44;;;;;;;0.20;0.20;;;;;;;;;;5068232;28;20040;-79
2024/03/30 10:02:11;;;;;;;0.20;0.03;;;;;;;;;;5052318;28;20064;-81
2024/03/30 10:04:37;;;;;;;0.20;0.00;;;;;;;;;;5052481;28;20129;-82
2024/03/30 10:07:07;;;;;;;0.20;0.10;;;;;;;;;;5053829;28;20301;-78
2024/03/30 10:09:33;;;;;;;0.20;0.13;;;;;;;;;;5068800;28;20075;-80
2024/03/30 10:12:00;;;;;;;0.45;0.35;;;;;;;;;;5067454;28;20032;-81
2024/03/30 10:14:26;;;;;;;1.00;0.50;;;;;;;;;;5048621;28;20046;-81
2024/03/30 10:16:52;;;;;;;0.20;0.00;;;;;;;;;;5050739;28;20051;-82
2024/03/30 10:19:20;;;;;;;0.20;0.10;;;;;;;;;;5050831;28;20719;-81
2024/03/30 10:21:46;;;;;;;0.20;0.00;;;;;;;;;;5039990;28;20049;-81
2024/03/30 10:24:16;;;;;;;0.20;0.05;;;;;;;;;;5031346;28;20036;-80
2024/03/30 10:26:42;;;;;;;0.20;0.10;;;;;;;;;;5045813;28;20048;-80
2024/03/30 10:29:10;;;;;;;0.20;0.20;;;;;;;;;;5030859;28;20042;-81
2024/03/30 10:31:40;;;;;;;0.20;0.10;;;;;;;;;;5063659;28;20097;-79
2024/03/30 10:34:07;;;;;;;0.20;0.10;;;;;;;;;;5049989;28;20096;-80
2024/03/30 10:36:33;;;;;;;0.20;0.10;;;;;;;;;;5047388;28;20026;-78
2024/03/30 10:39:00;;;;;;;0.20;0.10;;;;;;;;;;5043397;28;20174;-77
2024/03/30 10:41:29;;;;;;;0.30;0.28;;;;;;;;;;5043692;28;20061;-78
2024/03/30 10:43:55;;;;;;;0.20;0.10;;;;;;;;;;5046306;28;20044;-77
2024/03/30 10:46:23;;;;;;;0.20;0.10;;;;;;;;;;5041227;28;20033;-78
2024/03/30 10:48:50;;;;;;;0.20;0.10;;;;;;;;;;5061826;28;20038;-79
2024/03/30 10:51:16;;;;;;;0.50;0.10;;;;;;;;;;5045382;28;20045;-79
2024/03/30 10:53:43;;;;;;;0.20;0.10;;;;;;;;;;5043944;28;20041;-79
2024/03/30 10:56:10;;;;;;;0.20;0.00;;;;;;;;;;5045152;28;20080;-78
2024/03/30 10:58:37;;;;;;;0.20;0.10;;;;;;;;;;5039184;28;20029;-76
2024/03/30 11:01:07;;;;;;;0.30;0.28;;;;;;;;;;5032635;28;20041;-81
2024/03/30 11:03:33;;;;;;;0.20;0.10;;;;;;;;;;5042478;28;20120;-78
2024/03/30 11:06:00;;;;;;;0.20;0.10;;;;;;;;;;5056324;28;20075;-80
2024/03/30 11:08:26;;;;;;;0.20;0.00;;;;;;;;;;5036157;28;20048;-80
2024/03/30 11:10:52;;;;;;;0.20;0.10;;;;;;;;;;5041724;28;20044;-79
2024/03/30 11:13:19;;;;;;;0.20;0.00;;;;;;;;;;5041806;28;21387;-79
2024/03/30 11:15:45;;;;;;;0.20;0.10;;;;;;;;;;5047670;28;20272;-81
2024/03/30 11:18:13;;;;;;;0.20;0.10;;;;;;;;;;5042660;28;20045;-79
2024/03/30 11:20:50;;;;;;;0.20;0.00;;;;;;;;;;5042050;28;20386;-79
2024/03/30 11:23:27;;;;;;;0.20;0.05;;;;;;;;;;5042770;28;20098;-81
2024/03/30 11:26:02;;;;;;;0.20;0.00;;;;;;;;;;5046336;28;20041;-80
2024/03/30 11:28:30;;;;;;;0.20;0.00;;;;;;;;;;5047546;28;20041;-79
2024/03/30 11:30:59;;;;;;;0.25;0.15;;;;;;;;;;5043433;28;20101;-78
2024/03/30 11:33:30;;;;;;;0.22;0.13;;;;;;;;;;5041525;28;20041;-78
2024/03/30 11:36:10;;;;;;;0.20;0.10;;;;;;;;;;5024416;28;20041;-79
2024/03/30 11:38:37;;;;;;;0.20;0.00;;;;;;;;;;5041124;28;20128;-80
2024/03/30 11:41:06;;;;;;;0.20;0.00;;;;;;;;;;5043168;28;20032;-80
2024/03/30 11:43:53;;;;;;;0.20;0.10;;;;;;;;;;5042605;28;20036;-80
2024/03/30 11:46:20;;;;;;;0.20;0.10;;;;;;;;;;5037230;28;20056;-79
2024/03/30 11:48:47;;;;;;;0.20;0.10;;;;;;;;;;5044495;28;20041;-80
2024/03/30 11:51:19;;;;;;;0.20;0.00;;;;;;;;;;5059706;28;20539;-81
2024/03/30 11:53:45;;;;;;;;;;;;;;;;;;5041907;28;20037;-79
2024/03/30 11:56:12;;;;;;;0.30;0.20;;;;;;;;;;5044006;28;19955;-80
2024/03/30 11:58:40;;;;;;;0.20;0.10;;;;;;;;;;5043580;28;20060;-81
2024/03/30 12:01:09;;;;;;;0.35;0.32;;;;;;;;;;5029990;28;20060;-79
2024/03/30 12:03:36;;;;;;;0.30;0.20;;;;;;;;;;5047194;28;20049;-79
2024/03/30 12:06:03;;;;;;;0.85;0.45;;;;;;;;;;5034076;28;20037;-79
2024/03/30 12:08:29;;;;;;;0.20;0.13;;;;;;;;;;5048519;28;20048;-80
2024/03/30 12:10:59;;;;;;;0.20;0.10;;;;;;;;;;5031314;28;20086;-80
2024/03/30 12:13:26;;;;;;;0.20;0.10;;;;;;;;;;5044587;28;20047;-79
2024/03/30 12:15:52;;;;;;;0.20;0.00;;;;;;;;;;5048871;28;20048;-80
2024/03/30 12:18:19;;;;;;;0.20;0.10;;;;;;;;;;5047652;28;20033;-79
2024/03/30 12:20:47;;;;;;;0.20;0.00;;;;;;;;;;5045868;28;20045;-79
2024/03/30 12:23:14;;;;;;;0.20;0.08;;;;;;;;;;5039767;28;20048;-79
2024/03/30 12:25:42;;;;;;;0.20;0.10;;;;;;;;;;5036911;28;20037;-79
2024/03/30 12:28:08;;;;;;;0.20;0.00;;;;;;;;;;5036535;28;20040;-79
2024/03/30 12:30:47;;;;;;;0.20;0.10;;;;;;;;;;5054639;28;20032;-79
2024/03/30 12:33:13;;;;;;;0.20;0.10;;;;;;;;;;5033653;28;20510;-81
2024/03/30 12:35:40;;;;;;;0.20;0.10;;;;;;;;;;5031957;28;20040;-80
2024/03/30 12:38:06;;;;;;;0.20;0.10;;;;;;;;;;5046720;28;20033;-79
2024/03/30 12:40:35;;;;;;;0.45;0.15;;;;;;;;;;5046519;28;20043;-80
2024/03/30 12:43:02;;;;;;;0.20;0.00;;;;;;;;;;5041293;28;20041;-78
2024/03/30 12:45:28;;;;;;;0.20;0.10;;;;;;;;;;5038105;28;20476;-79
2024/03/30 12:47:54;;;;;;;0.20;0.10;;;;;;;;;;5032154;28;20098;-79
2024/03/30 12:50:27;;;;;;;0.20;0.10;;;;;;;;;;5047683;28;20048;-79
2024/03/30 12:53:01;;;;;;;0.20;0.10;;;;;;;;;;5045653;28;20085;-81
2024/03/30 12:55:27;;;;;;;0.20;0.10;;;;;;;;;;5062643;28;20036;-79
2024/03/30 12:57:55;;;;;;;0.20;0.00;;;;;;;;;;5054488;28;20032;-80
2024/03/30 13:00:21;;;;;;;0.20;0.00;;;;;;;;;;5041376;28;20059;-80
2024/03/30 13:03:00;;;;;;;0.20;0.10;;;;;;;;;;5064114;28;20044;-80
2024/03/30 13:05:27;;;;;;;0.22;0.10;;;;;;;;;;5047994;28;20073;-79
2024/03/30 13:07:54;;;;;;;0.20;0.00;;;;;;;;;;5027343;28;20289;-79
2024/03/30 13:10:21;;;;;;;0.20;0.00;;;;;;;;;;5028057;28;20127;-82
2024/03/30 13:12:47;;;;;;;0.57;0.40;;;;;;;;;;5046260;28;20037;-80
2024/03/30 13:15:13;;;;;;;1.40;0.90;;;;;;;;;;5040356;28;20083;-82
2024/03/30 13:17:39;;;;;;;0.25;0.17;;;;;;;;;;5043893;28;20059;-79
2024/03/30 13:20:08;;;;;;;0.30;0.30;;;;;;;;;;5031791;28;20049;-82
2024/03/30 13:22:39;;;;;;;0.57;0.57;;;;;;;;;;5047303;28;20068;-81
2024/03/30 13:25:07;;;;;;;0.20;0.10;;;;;;;;;;5049224;28;20051;-82
2024/03/30 13:27:33;;;;;;;0.20;0.10;;;;;;;;;;5043595;28;20042;-80
2024/03/30 13:29:59;;;;;;;0.40;0.40;;;;;;;;;;5031102;28;20082;-80
2024/03/30 13:32:25;;;;;;;0.90;0.80;;;;;;;;;;5030757;28;20481;-82
2024/03/30 13:34:51;;;;;;;0.20;0.10;;;;;;;;;;5037759;28;20620;-81
2024/03/30 13:37:17;;;;;;;1.05;0.98;;;;;;;;;;5045473;28;20044;-82
2024/03/30 13:39:43;;;;;;;0.30;0.30;;;;;;;;;;5058075;28;20484;-80
2024/03/30 13:42:09;;;;;;;0.20;0.10;;;;;;;;;;5026663;28;20112;-81
2024/03/30 13:44:35;;;;;;;0.20;0.10;;;;;;;;;;5041381;28;20041;-82
2024/03/30 13:47:02;;;;;;;0.20;0.03;;;;;;;;;;5026373;28;20037;-80
2024/03/30 13:49:28;;;;;;;0.47;0.32;;;;;;;;;;5050548;28;20052;-83
2024/03/30 13:51:54;;;;;;;0.20;0.10;;;;;;;;;;5026701;28;20105;-82
2024/03/30 13:54:20;;;;;;;1.20;0.90;;;;;;;;;;5044665;28;20044;-79
2024/03/30 13:56:46;;;;;;;0.63;0.50;;;;;;;;;;5026720;28;20037;-79
2024/03/30 13:59:12;;;;;;;0.28;0.13;;;;;;;;;;5031100;28;20378;-79
2024/03/30 14:01:38;;;;;;;2.00;1.30;;;;;;;;;;5041978;28;20144;-81
2024/03/30 14:04:04;;;;;;;0.20;0.10;;;;;;;;;;5041538;28;20457;-76
2024/03/30 14:06:30;;;;;;;3.10;1.27;;;;;;;;;;5046698;28;20076;-80
2024/03/30 14:08:56;;;;;;;0.82;0.73;;;;;;;;;;5043931;28;20116;-78
2024/03/30 14:11:22;;;;;;;0.70;0.65;;;;;;;;;;5025913;28;20045;-79
2024/03/30 14:13:48;;;;;;;1.10;1.00;;;;;;;;;;5042724;28;20052;-79
2024/03/30 14:16:14;;;;;;;1.10;1.00;;;;;;;;;;5027657;28;20555;-80
2024/03/30 14:18:40;;;;;;;0.20;0.10;;;;;;;;;;5039884;28;20512;-80
2024/03/30 14:21:06;;;;;;;1.08;0.98;;;;;;;;;;5048176;28;20043;-79
2024/03/30 14:23:33;;;;;;;0.30;0.20;;;;;;;;;;5040425;28;20497;-79
2024/03/30 14:25:59;;;;;;;0.30;0.30;;;;;;;;;;5048624;28;20120;-83
2024/03/30 14:28:25;;;;;;;0.20;0.08;;;;;;;;;;5042926;28;20049;-81
2024/03/30 14:30:51;;;;;;;0.50;0.50;;;;;;;;;;5040907;28;20068;-80
2024/03/30 14:33:17;;;;;;;0.20;0.10;;;;;;;;;;5039688;28;20032;-78
2024/03/30 14:35:43;;;;;;;3.70;1.10;;;;;;;;;;5028679;28;20041;-80
2024/03/30 14:38:09;;;;;;;0.47;0.47;;;;;;;;;;5028479;28;20111;-77
2024/03/30 14:40:35;;;;;;;0.20;0.10;;;;;;;;;;5045323;28;20137;-79
2024/03/30 14:43:02;;;;;;;0.40;0.40;;;;;;;;;;5027587;28;20521;-77